Time;durP1;ratioP1;P1;durP2;ratioP2;P2;SDS_P1;SDS_P2;PMS_P1;PMS_P2;Temp;Humidity;BMP_temperature;BMP_pressure;BME280_temperature;BME280_humidity;BME280_pressure;Samples;Min_cycle;Max_cycle;Signal;HPM_P1;HPM_P2
2024/01/13 00:00:22;;;;;;;;;4.67;4.67;;;;;21.23;43.97;101013.36;112150;1246;20777;-36
2024/01/13 00:03:09;;;;;;;;;4.00;4.00;;;;;21.21;43.80;101009.54;112106;1254;22204;-35
2024/01/13 00:05:37;;;;;;;;;3.00;3.00;;;;;21.21;44.04;101012.52;112181;1261;20185;-35
2024/01/13 00:08:04;;;;;;;;;4.00;4.00;;;;;21.20;43.99;101010.98;112151;1246;21004;-35
2024/01/13 00:10:32;;;;;;;;;4.00;4.00;;;;;21.20;43.72;101009.36;112188;1261;18178;-35
2024/01/13 00:13:00;;;;;;;;;3.00;3.00;;;;;21.20;43.88;101007.98;112176;1262;20004;-37
2024/01/13 00:15:27;;;;;;;;;3.00;3.00;;;;;21.20;44.09;101008.25;111930;1246;273524;-35
2024/01/13 00:17:54;;;;;;;;;6.00;4.00;;;;;21.20;43.84;101004.60;112154;1261;19598;-35
2024/01/13 00:20:22;;;;;;;;;4.00;4.00;;;;;21.18;44.02;101003.34;112180;1262;19991;-37
2024/01/13 00:22:49;;;;;;;;;4.00;4.00;;;;;21.19;43.94;101007.92;112144;1261;19549;-35
2024/01/13 00:25:17;;;;;;;;;4.00;4.00;;;;;21.20;43.58;101000.52;112160;1247;19715;-35
2024/01/13 00:27:44;;;;;;;;;3.00;3.00;;;;;21.19;43.67;100994.41;112169;1248;20105;-36
2024/01/13 00:30:11;;;;;;;;;4.00;4.00;;;;;21.19;43.75;100989.95;112204;1246;20740;-36
2024/01/13 00:32:39;;;;;;;;;3.50;3.00;;;;;21.19;43.60;100987.11;112181;1262;18698;-36
2024/01/13 00:35:06;;;;;;;;;3.00;3.00;;;;;21.19;43.66;100987.98;112228;1261;19994;-35
2024/01/13 00:37:34;;;;;;;;;3.00;3.00;;;;;21.19;43.61;100995.07;112174;1262;20760;-34
2024/01/13 00:40:01;;;;;;;;;3.50;3.50;;;;;21.19;43.49;100995.77;112249;1261;18540;-35
2024/01/13 00:42:28;;;;;;;;;4.00;3.00;;;;;21.19;43.57;100997.30;112220;1261;20330;-34
2024/01/13 00:44:56;;;;;;;;;4.00;3.67;;;;;21.19;43.73;101002.27;112131;1261;19235;-36
2024/01/13 00:47:23;;;;;;;;;4.00;4.00;;;;;21.19;43.74;100996.27;112175;1254;19608;-36
2024/01/13 00:49:51;;;;;;;;;3.00;3.00;;;;;21.18;43.57;100992.61;112160;1261;20047;-34
2024/01/13 00:52:18;;;;;;;;;4.00;4.00;;;;;21.18;43.72;100989.73;112133;1246;19748;-38
2024/01/13 00:54:46;;;;;;;;;3.00;3.00;;;;;21.19;43.82;100996.16;112208;1261;18205;-36
2024/01/13 00:57:13;;;;;;;;;3.00;3.00;;;;;21.18;43.67;101003.18;112163;1247;21129;-35
2024/01/13 00:59:40;;;;;;;;;4.00;4.00;;;;;21.18;43.50;101007.16;112204;1254;20739;-35
2024/01/13 01:02:09;;;;;;;;;3.00;3.00;;;;;21.19;43.72;101009.67;112149;1262;20673;-35
2024/01/13 01:04:36;;;;;;;;;3.00;3.00;;;;;21.19;43.49;101008.69;112194;1247;21217;-35
2024/01/13 01:07:03;;;;;;;;;4.00;3.00;;;;;21.18;43.35;101005.52;112138;1261;20910;-35
2024/01/13 01:09:31;;;;;;;;;2.50;2.50;;;;;21.17;43.23;101005.68;112208;1247;19626;-36
2024/01/13 01:11:58;;;;;;;;;1.00;1.00;;;;;21.17;43.60;101008.30;112119;1246;19839;-36
2024/01/13 01:14:26;;;;;;;;;4.00;3.00;;;;;21.18;43.43;101010.16;112247;1246;20815;-36
2024/01/13 01:16:53;;;;;;;;;3.00;3.00;;;;;21.17;43.57;101004.10;112195;1247;19574;-35
2024/01/13 01:19:20;;;;;;;;;3.00;3.00;;;;;21.17;43.36;101003.34;112232;1262;18929;-35
2024/01/13 01:21:48;;;;;;;;;3.00;3.00;;;;;21.17;43.48;101000.35;112162;1247;20809;-36
2024/01/13 01:24:15;;;;;;;;;3.00;3.00;;;;;21.16;43.28;100988.57;112256;1261;19567;-35
2024/01/13 01:26:43;;;;;;;;;3.00;3.00;;;;;21.16;43.45;100981.71;112129;1262;19992;-37
2024/01/13 01:29:10;;;;;;;;;4.00;3.67;;;;;21.15;43.40;100983.66;112191;1246;20815;-36
2024/01/13 01:31:37;;;;;;;;;4.00;3.00;;;;;21.15;43.37;100983.83;112131;1260;19629;-35
2024/01/13 01:34:05;;;;;;;;;3.00;3.00;;;;;21.15;43.38;100979.96;112051;1246;19947;-37
2024/01/13 01:36:32;;;;;;;;;3.00;3.00;;;;;21.15;43.45;100968.20;112118;1262;19537;-36
2024/01/13 01:39:00;;;;;;;;;3.50;3.50;;;;;21.16;43.18;100968.25;112022;1246;19584;-36
2024/01/13 01:41:27;;;;;;;;;4.00;3.00;;;;;21.14;43.34;100966.83;112122;1261;19946;-36
2024/01/13 01:43:55;;;;;;;;;4.00;3.00;;;;;21.14;43.29;100961.39;112045;1246;21075;-36
2024/01/13 01:46:22;;;;;;;;;1.00;1.00;;;;;21.15;43.53;100964.44;112167;1261;18758;-35
2024/01/13 01:48:49;;;;;;;;;4.00;4.00;;;;;21.15;43.30;100965.80;112051;1246;20394;-38
2024/01/13 01:51:17;;;;;;;;;3.00;3.00;;;;;21.14;43.28;100964.81;112165;1261;20710;-35
2024/01/13 01:53:44;;;;;;;;;4.00;3.00;;;;;21.14;43.10;100965.41;112048;1246;18181;-36
2024/01/13 01:56:12;;;;;;;;;3.00;3.00;;;;;21.15;43.24;100969.83;112194;1246;18588;-35
2024/01/13 01:58:39;;;;;;;;;3.00;1.00;;;;;21.15;43.09;100963.88;112009;1254;20654;-38
2024/01/13 02:01:07;;;;;;;;;3.00;3.00;;;;;21.16;42.89;100963.34;112213;1254;19492;-35
2024/01/13 02:03:34;;;;;;;;;4.00;3.00;;;;;21.14;43.12;100958.98;112069;1262;20317;-35
2024/01/13 02:06:02;;;;;;;;;3.00;3.00;;;;;21.14;43.04;100962.20;112219;1261;21218;-37
2024/01/13 02:08:29;;;;;;;;;3.00;3.00;;;;;21.14;43.22;100961.48;111989;1262;18633;-35
2024/01/13 02:10:58;;;;;;;;;1.00;1.00;;;;;21.14;43.16;100958.77;112242;1261;21603;-36
2024/01/13 02:13:25;;;;;;;;;3.00;1.00;;;;;21.13;43.23;100956.63;112094;1261;19351;-35
2024/01/13 02:15:52;;;;;;;;;3.00;3.00;;;;;21.14;43.27;100957.08;112184;1246;19676;-37
2024/01/13 02:18:20;;;;;;;;;1.00;1.00;;;;;21.14;43.09;100959.09;112028;1262;19995;-35
2024/01/13 02:20:48;;;;;;;;;3.00;3.00;;;;;21.14;43.23;100957.02;112196;1261;20646;-34
2024/01/13 02:23:15;;;;;;;;;3.00;3.00;;;;;21.13;43.00;100951.41;112051;1246;19627;-36
2024/01/13 02:25:43;;;;;;;;;3.00;3.00;;;;;21.15;43.07;100957.52;112220;1246;19926;-35
2024/01/13 02:28:10;;;;;;;;;3.50;3.50;;;;;21.15;42.99;100957.67;112017;1246;19404;-36
2024/01/13 02:30:37;;;;;;;;;3.00;1.00;;;;;21.14;42.78;100950.86;112201;1262;18695;-37
2024/01/13 02:33:05;;;;;;;;;3.00;3.00;;;;;21.13;43.04;100946.55;112149;1256;18732;-36
2024/01/13 02:35:32;;;;;;;;;3.00;3.00;;;;;21.14;43.05;100944.65;112280;1246;20690;-38
2024/01/13 02:38:00;;;;;;;;;3.00;3.00;;;;;21.13;42.81;100940.34;112149;1262;18156;-35
2024/01/13 02:40:27;;;;;;;;;3.00;3.00;;;;;21.13;42.99;100945.14;112309;1246;21150;-35
2024/01/13 02:42:55;;;;;;;;;1.00;1.00;;;;;21.13;43.04;100942.25;112178;1246;20657;-37
2024/01/13 02:45:22;;;;;;;;;3.00;3.00;;;;;21.13;42.81;100935.34;112269;1245;19590;-38
2024/01/13 02:47:49;;;;;;;;;3.00;3.00;;;;;21.12;43.02;100929.56;112175;1246;21402;-35
2024/01/13 02:50:17;;;;;;;;;3.00;3.00;;;;;21.12;42.81;100931.69;112223;1261;20637;-36
2024/01/13 02:52:47;;;;;;;;;4.00;3.50;;;;;21.11;42.92;100926.23;112161;1246;19816;-37
2024/01/13 02:55:14;;;;;;;;;3.00;3.00;;;;;21.12;43.04;100926.13;112215;1262;18616;-35
2024/01/13 02:57:41;;;;;;;;;3.00;3.00;;;;;21.12;42.90;100926.89;112147;1246;22428;-35
2024/01/13 03:00:09;;;;;;;;;3.00;3.00;;;;;21.12;42.77;100918.77;112209;1261;19552;-38
2024/01/13 03:02:36;;;;;;;;;3.00;3.00;;;;;21.12;42.98;100915.34;112194;1246;20110;-35
2024/01/13 03:05:04;;;;;;;;;3.00;3.00;;;;;21.11;43.06;100913.05;112182;1261;20679;-35
2024/01/13 03:07:31;;;;;;;;;3.00;3.00;;;;;21.11;42.69;100911.19;112179;1246;19585;-36
2024/01/13 03:09:59;;;;;;;;;3.00;3.00;;;;;21.10;42.82;100914.69;112194;1246;20631;-38
2024/01/13 03:12:26;;;;;;;;;3.00;3.00;;;;;21.12;42.93;100912.45;112197;1247;20599;-38
2024/01/13 03:14:54;;;;;;;;;1.00;1.00;;;;;21.12;42.96;100908.80;112214;1261;18153;-37
2024/01/13 03:17:21;;;;;;;;;3.00;3.00;;;;;21.11;42.79;100905.42;112222;1261;19932;-35
2024/01/13 03:19:48;;;;;;;;;3.00;3.00;;;;;21.11;42.64;100909.18;112184;1261;21298;-36
2024/01/13 03:22:16;;;;;;;;;3.00;3.00;;;;;21.11;42.74;100908.36;112178;1246;19607;-36
2024/01/13 03:24:43;;;;;;;;;2.00;2.00;;;;;21.10;42.94;100919.96;112215;1245;20313;-35
2024/01/13 03:27:11;;;;;;;;;4.00;3.00;;;;;21.10;42.96;100931.02;112172;1261;19312;-37
2024/01/13 03:29:38;;;;;;;;;3.00;3.00;;;;;21.11;42.68;100933.80;112187;1247;19641;-37
2024/01/13 03:32:06;;;;;;;;;3.00;3.00;;;;;21.11;42.85;100934.52;112119;1246;20096;-37
2024/01/13 03:34:33;;;;;;;;;3.00;3.00;;;;;21.10;42.71;100930.48;112185;1246;20724;-35
2024/01/13 03:37:00;;;;;;;;;3.00;3.00;;;;;21.11;42.75;100940.71;112189;1246;20787;-38
2024/01/13 03:39:28;;;;;;;;;3.00;3.00;;;;;21.10;42.67;100936.68;112204;1246;20383;-36
2024/01/13 03:41:55;;;;;;;;;3.00;3.00;;;;;21.10;42.69;100945.08;112193;1246;20898;-39
2024/01/13 03:44:23;;;;;;;;;3.00;3.00;;;;;21.10;42.74;100951.40;112188;1246;20896;-36
2024/01/13 03:46:51;;;;;;;;;3.00;3.00;;;;;21.10;42.55;100955.38;112163;1247;20130;-35
2024/01/13 03:49:18;;;;;;;;;3.00;3.00;;;;;21.10;42.66;100949.16;112214;1246;19372;-35
2024/01/13 03:51:45;;;;;;;;;1.00;1.00;;;;;21.10;42.68;100948.02;112179;1246;20853;-35
2024/01/13 03:54:13;;;;;;;;;3.00;3.00;;;;;21.10;42.73;100940.55;112259;1261;19903;-38
2024/01/13 03:56:40;;;;;;;;;3.00;3.00;;;;;21.10;42.68;100938.98;112193;1245;22072;-35
2024/01/13 03:59:08;;;;;;;;;3.00;3.00;;;;;21.10;42.75;100937.34;112245;1261;18196;-38
2024/01/13 04:01:35;;;;;;;;;3.00;3.00;;;;;21.10;42.58;100927.27;112142;1246;18645;-35
2024/01/13 04:04:02;;;;;;;;;3.00;3.00;;;;;21.10;42.80;100919.48;112290;1261;19336;-35
2024/01/13 04:06:30;;;;;;;;;3.00;1.00;;;;;21.09;42.39;100910.70;112118;1261;19547;-35
2024/01/13 04:08:58;;;;;;;;;3.00;3.00;;;;;21.09;42.64;100907.92;112257;1247;20493;-36
2024/01/13 04:11:25;;;;;;;;;1.00;1.00;;;;;21.09;42.69;100901.38;112161;1254;19447;-36
2024/01/13 04:13:53;;;;;;;;;2.00;2.00;;;;;21.08;42.77;100896.16;112262;1261;18703;-39
2024/01/13 04:16:20;;;;;;;;;3.00;3.00;;;;;21.09;42.75;100893.91;112173;1254;19952;-38
2024/01/13 04:18:48;;;;;;;;;3.00;3.00;;;;;21.09;42.64;100900.85;112309;1246;22253;-36
2024/01/13 04:21:15;;;;;;;;;3.00;3.00;;;;;21.09;42.72;100902.64;112132;1262;18164;-36
2024/01/13 04:23:42;;;;;;;;;1.00;1.00;;;;;21.09;42.72;100904.98;112276;1261;19989;-35
2024/01/13 04:26:10;;;;;;;;;3.00;3.00;;;;;21.08;42.75;100903.77;112137;1262;19223;-35
2024/01/13 04:28:38;;;;;;;;;3.00;3.00;;;;;21.08;42.68;100907.52;112271;1247;19538;-36
2024/01/13 04:31:07;;;;;;;;;3.00;3.00;;;;;21.08;42.65;100910.53;112142;1261;18648;-36
2024/01/13 04:33:34;;;;;;;;;1.00;1.00;;;;;21.09;42.64;100903.35;112200;1246;22182;-36
2024/01/13 04:36:02;;;;;;;;;3.00;3.00;;;;;21.09;42.61;100893.38;112171;1261;18163;-35
2024/01/13 04:38:29;;;;;;;;;3.00;3.00;;;;;21.08;42.58;100890.48;112176;1261;20028;-36
2024/01/13 04:40:57;;;;;;;;;3.00;3.00;;;;;21.09;42.50;100886.79;112184;1246;21148;-35
2024/01/13 04:43:24;;;;;;;;;1.00;1.00;;;;;21.08;42.69;100886.52;112164;1262;19559;-35
2024/01/13 04:45:52;;;;;;;;;3.00;3.00;;;;;21.08;42.61;100890.59;112117;1247;20293;-38
2024/01/13 04:48:19;;;;;;;;;3.00;3.00;;;;;21.08;42.64;100893.54;112188;1246;21909;-35
2024/01/13 04:50:47;;;;;;;;;1.00;1.00;;;;;21.08;42.45;100888.14;112155;1246;20978;-36
2024/01/13 04:53:14;;;;;;;;;1.00;1.00;;;;;21.08;42.60;100884.60;112189;1247;19900;-37
2024/01/13 04:55:41;;;;;;;;;3.00;3.00;;;;;21.08;42.49;100884.77;112169;1246;22243;-35
2024/01/13 04:58:09;;;;;;;;;3.00;3.00;;;;;21.07;42.50;100885.53;112203;1246;19525;-37
2024/01/13 05:00:37;;;;;;;;;3.00;3.00;;;;;21.08;42.52;100883.02;112123;1262;21269;-35
2024/01/13 05:03:04;;;;;;;;;2.00;2.00;;;;;21.08;42.48;100883.40;112206;1246;20745;-35
2024/01/13 05:05:32;;;;;;;;;3.00;3.00;;;;;21.08;42.32;100880.84;112169;1262;18730;-36
2024/01/13 05:07:59;;;;;;;;;1.00;1.00;;;;;21.07;42.58;100874.69;112214;1261;18584;-35
2024/01/13 05:10:27;;;;;;;;;1.00;1.00;;;;;21.07;42.35;100872.67;112180;1261;20869;-38
2024/01/13 05:12:54;;;;;;;;;6.00;3.00;;;;;21.06;42.56;100870.82;112216;1247;19641;-35
2024/01/13 05:15:22;;;;;;;;;3.00;3.00;;;;;21.07;42.56;100868.48;112184;1261;20401;-37
2024/01/13 05:17:49;;;;;;;;;3.50;3.00;;;;;21.07;42.60;100866.14;112188;1246;20828;-36
2024/01/13 05:20:16;;;;;;;;;3.00;3.00;;;;;21.07;42.44;100865.91;112208;1247;19643;-37
2024/01/13 05:22:44;;;;;;;;;1.00;1.00;;;;;21.07;42.59;100863.25;112200;1261;21429;-34
2024/01/13 05:25:11;;;;;;;;;1.00;1.00;;;;;21.07;42.39;100867.77;112206;1262;22208;-34
2024/01/13 05:27:39;;;;;;;;;3.00;3.00;;;;;21.07;42.63;100859.98;112119;1247;21228;-36
2024/01/13 05:30:09;;;;;;;;;4.00;4.00;;;;;21.07;42.44;100856.00;112219;1261;18618;-34
2024/01/13 05:32:36;;;;;;;;;3.00;3.00;;;;;21.06;42.45;100855.84;112164;1246;22252;-36
2024/01/13 05:35:04;;;;;;;;;3.00;3.00;;;;;21.06;42.68;100858.34;112036;1262;19851;-35
2024/01/13 05:37:31;;;;;;;;;4.00;3.00;;;;;21.06;42.55;100854.98;112171;1246;18809;-35
2024/01/13 05:39:59;;;;;;;;;4.00;4.00;;;;;21.07;42.59;100858.13;112066;1246;20763;-37
2024/01/13 05:42:27;;;;;;;;;3.00;3.00;;;;;21.06;42.61;100860.09;112119;1262;20681;-34
2024/01/13 05:44:54;;;;;;;;;3.33;3.00;;;;;21.06;42.39;100856.83;112036;1261;18663;-35
2024/01/13 05:47:21;;;;;;;;;5.33;4.00;;;;;21.06;42.46;100857.64;112151;1262;20863;-35
2024/01/13 05:49:49;;;;;;;;;3.00;3.00;;;;;21.06;42.60;100858.02;112109;1262;18819;-36
2024/01/13 05:52:16;;;;;;;;;4.00;4.00;;;;;21.07;42.56;100861.23;112200;1246;20058;-34
2024/01/13 05:54:44;;;;;;;;;3.00;3.00;;;;;21.06;42.62;100856.94;112101;1246;21123;-36
2024/01/13 05:57:11;;;;;;;;;3.00;3.00;;;;;21.06;42.82;100852.89;112177;1261;18227;-36
2024/01/13 05:59:39;;;;;;;;;3.00;3.00;;;;;21.06;42.39;100855.35;112094;1246;20413;-36
2024/01/13 06:02:06;;;;;;;;;3.50;3.00;;;;;21.05;42.37;100860.69;112187;1261;19361;-34
2024/01/13 06:04:34;;;;;;;;;3.00;3.00;;;;;21.06;42.34;100860.69;112104;1246;19660;-35
2024/01/13 06:07:04;;;;;;;;;3.00;3.00;;;;;21.05;42.45;100857.85;112223;1262;18475;-35
2024/01/13 06:09:31;;;;;;;;;3.50;3.50;;;;;21.06;42.43;100859.00;112191;1262;22273;-37
2024/01/13 06:11:59;;;;;;;;;6.00;4.00;;;;;21.07;42.61;100854.69;112066;1262;18205;-34
2024/01/13 06:14:26;;;;;;;;;4.00;4.00;;;;;21.05;42.49;100858.77;112182;1246;20185;-36
2024/01/13 06:16:54;;;;;;;;;4.00;4.00;;;;;21.06;42.51;100861.77;112082;1254;19715;-34
2024/01/13 06:19:21;;;;;;;;;4.00;3.00;;;;;21.06;42.49;100867.05;112212;1246;19653;-37
2024/01/13 06:21:49;;;;;;;;;4.00;4.00;;;;;21.05;42.50;100868.15;112082;1246;19999;-35
2024/01/13 06:24:17;;;;;;;;;4.00;4.00;;;;;21.06;42.29;100867.06;112185;1254;19565;-37
2024/01/13 06:26:44;;;;;;;;;6.00;4.00;;;;;21.05;42.51;100863.30;112103;1262;18341;-34
2024/01/13 06:29:11;;;;;;;;;3.00;3.00;;;;;21.05;42.37;100862.87;111977;1247;18649;-36
2024/01/13 06:31:39;;;;;;;;;3.00;3.00;;;;;21.05;42.29;100860.90;111962;1262;20665;-36
2024/01/13 06:34:06;;;;;;;;;4.00;4.00;;;;;21.05;42.26;100858.78;112041;1262;20956;-36
2024/01/13 06:36:34;;;;;;;;;3.00;3.00;;;;;21.05;42.45;100865.64;112043;1262;19965;-34
2024/01/13 06:39:01;;;;;;;;;4.00;4.00;;;;;21.05;42.38;100867.16;112079;1247;20793;-37
2024/01/13 06:41:29;;;;;;;;;6.00;6.00;;;;;21.05;42.37;100863.41;112035;1247;19644;-34
2024/01/13 06:43:56;;;;;;;;;5.00;5.00;;;;;21.04;42.39;100858.19;112072;1255;21495;-35
2024/01/13 06:46:24;;;;;;;;;6.00;6.00;;;;;21.04;42.61;100858.94;112064;1262;19493;-34
2024/01/13 06:48:51;;;;;;;;;3.00;3.00;;;;;21.03;42.13;100849.63;112065;1262;18709;-34
2024/01/13 06:51:19;;;;;;;;;4.00;4.00;;;;;21.03;42.27;100850.44;112078;1246;21058;-35
2024/01/13 06:53:46;;;;;;;;;4.00;4.00;;;;;21.03;42.43;100841.23;112126;1247;21032;-36
2024/01/13 06:56:13;;;;;;;;;6.00;4.00;;;;;21.03;42.44;100839.65;112078;1247;19667;-34
2024/01/13 06:58:41;;;;;;;;;6.00;4.67;;;;;21.03;42.28;100839.88;112186;1246;20220;-35
2024/01/13 07:01:09;;;;;;;;;4.00;4.00;;;;;21.03;42.32;100839.43;112085;1262;20916;-35
2024/01/13 07:03:36;;;;;;;;;4.00;4.00;;;;;21.04;42.26;100830.51;112171;1247;20020;-36
2024/01/13 07:06:03;;;;;;;;;6.00;4.00;;;;;21.03;42.32;100827.61;112096;1254;18725;-35
2024/01/13 07:08:31;;;;;;;;;5.00;5.00;;;;;21.03;42.42;100820.21;112152;1246;21927;-34
2024/01/13 07:10:59;;;;;;;;;4.00;4.00;;;;;21.03;42.70;100825.66;112093;1262;19508;-34
2024/01/13 07:13:27;;;;;;;;;5.00;5.00;;;;;21.04;42.19;100817.92;112129;1262;18579;-37
2024/01/13 07:15:54;;;;;;;;;4.00;4.00;;;;;21.03;42.34;100811.50;112069;1262;19312;-34
2024/01/13 07:18:22;;;;;;;;;3.00;3.00;;;;;21.04;42.45;100808.83;112162;1247;19601;-34
2024/01/13 07:20:51;;;;;;;;;6.00;6.00;;;;;21.04;42.47;100803.92;112067;1262;19913;-35
2024/01/13 07:23:19;;;;;;;;;6.00;4.00;;;;;21.11;42.13;100799.19;112056;1247;20757;-34
2024/01/13 07:25:47;;;;;;;;;6.50;6.00;;;;;21.12;42.37;100800.45;112233;1262;19543;-35
2024/01/13 07:28:14;;;;;;;;;6.00;6.00;;;;;21.11;42.31;100799.74;112100;1247;19052;-34
2024/01/13 07:30:42;;;;;;;;;6.50;6.00;;;;;21.12;42.37;100806.60;112234;1246;20706;-37
2024/01/13 07:33:09;;;;;;;;;6.50;6.00;;;;;21.11;42.37;100810.36;112085;1247;19665;-34
2024/01/13 07:35:36;;;;;;;;;4.00;4.00;;;;;21.20;42.24;100815.13;112136;1262;18640;-38
2024/01/13 07:38:04;;;;;;;;;4.00;4.00;;;;;21.18;42.38;100809.39;112025;1262;19331;-34
2024/01/13 07:40:31;;;;;;;;;7.00;6.00;;;;;21.14;42.65;100800.23;112152;1262;18225;-36
2024/01/13 07:42:59;;;;;;;;;4.00;4.00;;;;;21.14;42.73;100795.06;112017;1262;18622;-34
2024/01/13 07:45:27;;;;;;;;;4.00;4.00;;;;;21.16;42.71;100800.99;112201;1256;19596;-36
2024/01/13 07:47:54;;;;;;;;;4.00;4.00;;;;;21.15;42.99;100800.13;112002;1255;18173;-36
2024/01/13 07:50:22;;;;;;;;;6.00;6.00;;;;;21.15;43.23;100802.73;112169;1262;19971;-36
2024/01/13 07:52:49;;;;;;;;;5.00;4.00;;;;;21.14;43.13;100800.56;111998;1247;21951;-37
2024/01/13 07:55:16;;;;;;;;;6.00;6.00;;;;;21.16;43.24;100801.71;112199;1247;19547;-34
2024/01/13 07:57:44;;;;;;;;;7.00;6.00;;;;;21.19;43.17;100806.17;112044;1255;18748;-35
2024/01/13 08:00:12;;;;;;;;;4.00;4.00;;;;;21.14;43.41;100804.38;112261;1247;19403;-37
2024/01/13 08:02:39;;;;;;;;;4.00;4.00;;;;;21.12;43.53;100799.47;112053;1247;19579;-34
2024/01/13 08:05:06;;;;;;;;;7.00;7.00;;;;;21.11;43.69;100793.20;112240;1262;20399;-34
2024/01/13 08:07:34;;;;;;;;;5.33;4.00;;;;;21.10;43.65;100788.19;112071;1247;22197;-38
2024/01/13 08:10:02;;;;;;;;;4.00;4.00;;;;;21.10;43.67;100788.57;112186;1262;19965;-35
2024/01/13 08:12:30;;;;;;;;;7.00;6.00;;;;;21.10;43.73;100780.40;111990;1247;20387;-34
2024/01/13 08:14:57;;;;;;;;;7.00;6.00;;;;;21.09;43.79;100777.30;112195;1247;20947;-35
2024/01/13 08:17:25;;;;;;;;;7.00;7.00;;;;;21.09;43.80;100768.63;112015;1262;19895;-34
2024/01/13 08:19:52;;;;;;;;;6.00;4.00;;;;;21.08;43.63;100764.92;112187;1259;20036;-35
2024/01/13 08:22:20;;;;;;;;;6.00;6.00;;;;;21.08;43.81;100767.48;111990;1262;19340;-34
2024/01/13 08:24:47;;;;;;;;;6.33;5.33;;;;;21.07;43.63;100767.77;112198;1262;18581;-34
2024/01/13 08:27:14;;;;;;;;;4.00;4.00;;;;;21.08;43.68;100767.54;112040;1255;20429;-34
2024/01/13 08:29:42;;;;;;;;;6.50;6.00;;;;;21.10;43.42;100764.83;112225;1247;20736;-36
2024/01/13 08:32:10;;;;;;;;;7.00;6.00;;;;;21.22;43.24;100757.70;112120;1262;18628;-36
2024/01/13 08:34:37;;;;;;;;;6.00;6.00;;;;;21.16;43.34;100756.38;112306;1247;19936;-34
2024/01/13 08:37:05;;;;;;;;;6.00;6.00;;;;;21.13;43.46;100750.22;112167;1261;19320;-43
2024/01/13 08:39:33;;;;;;;;;7.00;7.00;;;;;21.18;43.90;100746.27;112273;1246;19658;-34
2024/01/13 08:42:01;;;;;;;;;4.00;4.00;;;;;21.17;44.08;100740.80;112139;1261;21352;-35
2024/01/13 08:44:28;;;;;;;;;4.00;4.00;;;;;21.16;44.23;100743.58;112252;1246;22102;-35
2024/01/13 08:46:56;;;;;;;;;6.00;6.00;;;;;21.22;44.52;100744.30;112160;1246;19672;-36
2024/01/13 08:49:23;;;;;;;;;6.00;6.00;;;;;21.21;44.27;100740.04;112245;1262;20267;-34
2024/01/13 08:51:50;;;;;;;;;4.00;4.00;;;;;21.20;44.33;100736.71;112158;1261;20719;-39
2024/01/13 08:54:18;;;;;;;;;4.00;4.00;;;;;21.17;44.30;100736.17;112278;1261;18213;-34
2024/01/13 08:56:46;;;;;;;;;6.00;6.00;;;;;21.18;44.59;100727.23;112154;1246;20226;-34
2024/01/13 08:59:13;;;;;;;;;6.00;6.00;;;;;21.31;44.47;100720.17;112256;1246;21072;-36
2024/01/13 09:01:40;;;;;;;;;6.00;6.00;;;;;21.27;44.90;100717.83;112193;1247;19599;-33
2024/01/13 09:04:08;;;;;;;;;6.00;6.00;;;;;21.30;44.71;100714.17;112258;1261;19663;-34
2024/01/13 09:06:35;;;;;;;;;4.00;4.00;;;;;21.34;45.07;100712.77;112136;1246;20774;-35
2024/01/13 09:09:04;;;;;;;;;6.00;6.00;;;;;21.36;44.62;100711.17;112132;1247;19549;-35
2024/01/13 09:11:31;;;;;;;;;4.00;4.00;;;;;21.48;44.83;100707.55;112191;1246;18673;-38
2024/01/13 09:13:59;;;;;;;;;3.00;3.00;;;;;21.43;45.05;100710.18;112223;1261;19509;-34
2024/01/13 09:16:26;;;;;;;;;4.00;4.00;;;;;21.49;44.83;100709.02;112172;1262;19582;-34
2024/01/13 09:18:54;;;;;;;;;4.00;3.00;;;;;21.36;45.00;100706.81;112224;1262;20108;-37
2024/01/13 09:21:21;;;;;;;;;4.00;4.00;;;;;21.40;45.25;100694.82;112167;1246;19381;-36
2024/01/13 09:23:50;;;;;;;;;6.00;4.00;;;;;21.31;45.33;100674.73;112198;1261;18220;-34
2024/01/13 09:26:18;;;;;;;;;5.33;4.00;;;;;21.29;45.35;100659.52;112296;1262;19973;-37
2024/01/13 09:28:46;;;;;;;;;4.00;4.00;;;;;21.30;45.39;100653.58;112130;1262;21071;-34
2024/01/13 09:31:13;;;;;;;;;6.00;6.00;;;;;21.32;45.20;100647.03;112248;1261;20698;-34
2024/01/13 09:33:41;;;;;;;;;6.00;6.00;;;;;21.34;45.48;100643.27;112160;1261;18580;-35
2024/01/13 09:36:08;;;;;;;;;4.67;4.67;;;;;21.26;45.89;100630.71;112236;1261;19331;-34
2024/01/13 09:38:36;;;;;;;;;7.00;6.00;;;;;21.20;45.78;100630.40;112157;1261;19134;-34
2024/01/13 09:41:03;;;;;;;;;6.00;6.00;;;;;21.17;45.95;100633.31;112275;1261;17808;-34
2024/01/13 09:43:31;;;;;;;;;7.00;7.00;;;;;21.13;45.92;100628.70;112172;1261;20736;-34
2024/01/13 09:46:00;;;;;;;;;7.00;7.00;;;;;21.18;45.69;100625.73;112191;1246;19659;-34
2024/01/13 09:48:28;;;;;;;;;7.00;7.00;;;;;21.11;45.72;100619.48;112274;1261;18608;-34
2024/01/13 09:50:55;;;;;;;;;6.00;6.00;;;;;21.11;45.70;100617.74;112130;1246;20767;-37
2024/01/13 09:53:22;;;;;;;;;6.50;6.50;;;;;21.10;45.34;100613.66;112152;1262;19742;-36
2024/01/13 09:55:50;;;;;;;;;7.00;4.00;;;;;21.09;45.47;100603.48;112097;1261;19027;-37
2024/01/13 09:58:18;;;;;;;;;6.00;6.00;;;;;21.10;45.61;100600.80;112076;1247;22251;-34
2024/01/13 10:00:45;;;;;;;;;12.00;12.00;;;;;21.19;45.14;100602.80;112047;1261;18449;-37
2024/01/13 10:03:13;;;;;;;;;77.00;58.00;;;;;21.27;45.37;100595.99;112080;1261;20060;-37
2024/01/13 10:05:40;;;;;;;;;66.50;50.00;;;;;21.18;45.57;100589.19;112059;1262;21540;-37
2024/01/13 10:08:08;;;;;;;;;98.67;72.00;;;;;21.21;45.47;100577.70;112083;1246;20050;-36
2024/01/13 10:10:35;;;;;;;;;94.00;67.00;;;;;21.27;45.54;100570.83;112068;1246;20157;-37
2024/01/13 10:13:03;;;;;;;;;98.50;71.50;;;;;21.43;45.05;100567.88;112043;1246;19382;-34
2024/01/13 10:15:30;;;;;;;;;113.00;82.00;;;;;21.47;44.77;100559.58;112038;1246;19904;-38
2024/01/13 10:17:57;;;;;;;;;109.00;78.00;;;;;21.41;45.11;100553.02;112048;1246;21429;-36
2024/01/13 10:20:25;;;;;;;;;111.50;80.00;;;;;21.45;45.13;100546.39;112031;1247;19348;-35
2024/01/13 10:22:52;;;;;;;;;109.00;78.00;;;;;21.37;45.61;100545.02;112131;1246;18874;-35
2024/01/13 10:25:21;;;;;;;;;101.00;76.00;;;;;21.41;45.57;100543.97;112136;1246;20246;-37
2024/01/13 10:27:48;;;;;;;;;102.00;73.00;;;;;21.49;45.46;100535.53;112123;1254;21021;-38
2024/01/13 10:30:16;;;;;;;;;90.00;68.00;;;;;21.45;45.59;100537.41;112178;1261;20811;-35
2024/01/13 10:32:43;;;;;;;;;84.00;62.00;;;;;21.43;45.13;100536.81;112147;1247;20567;-36
2024/01/13 10:35:17;;;;;;;;;81.00;63.00;;;;;21.35;45.26;100535.81;112247;1261;21957;-36
2024/01/13 10:37:44;;;;;;;;;73.00;56.00;;;;;21.30;45.34;100527.39;112140;1246;20254;-37
2024/01/13 10:40:12;;;;;;;;;58.50;49.00;;;;;21.22;45.87;100519.61;112216;1261;18755;-39
2024/01/13 10:42:40;;;;;;;;;69.00;47.00;;;;;21.30;45.26;100511.53;112134;1262;21075;-35
2024/01/13 10:45:07;;;;;;;;;52.50;40.00;;;;;21.35;45.29;100503.28;112182;1261;18787;-38
2024/01/13 10:47:34;;;;;;;;;61.50;46.00;;;;;21.41;45.03;100499.66;112143;1261;20030;-37
2024/01/13 10:50:02;;;;;;;;;54.00;43.33;;;;;21.47;44.66;100501.38;112230;1261;21008;-35
2024/01/13 10:52:30;;;;;;;;;48.50;41.50;;;;;21.39;45.43;100491.60;112154;1261;20173;-38
2024/01/13 10:54:58;;;;;;;;;39.00;32.50;;;;;21.30;45.57;100486.14;112222;1261;20350;-36
2024/01/13 10:57:27;;;;;;;;;35.00;27.00;;;;;21.27;45.27;100471.55;112214;1261;19831;-37
2024/01/13 10:59:54;;;;;;;;;35.00;27.00;;;;;21.28;45.08;100470.46;112200;1261;20134;-36
2024/01/13 11:02:22;;;;;;;;;36.00;32.00;;;;;21.22;45.07;100468.84;112237;1246;21399;-36
2024/01/13 11:04:49;;;;;;;;;36.50;28.50;;;;;21.23;45.35;100468.31;112184;1262;21902;-35
2024/01/13 11:07:17;;;;;;;;;29.33;24.00;;;;;21.20;45.13;100471.29;112207;1261;19962;-36
2024/01/13 11:09:44;;;;;;;;;30.00;29.00;;;;;21.18;45.19;100474.13;112171;1254;21770;-36
2024/01/13 11:12:12;;;;;;;;;26.00;21.00;;;;;21.23;45.02;100477.29;112225;1261;19369;-37
2024/01/13 11:14:39;;;;;;;;;24.00;21.00;;;;;21.47;44.39;100479.67;112203;1247;20030;-35